Sumiyoshimaru No11 — JJ3809 — position and weather

sailwx.info

Track history (hours):
 
Tides and Currents Weather Stations Pressure Air Temp Water Temp Dewpoint Dewpoint Depression Visibility Wind Speed Wind Dir Waves Ship Positions

Sumiyoshimaru No11

Last reported at 2017-Nov-17 05:53 UTC. Time now 2017-Nov-22 09:23 UTC.
Position N 34°37' E 135°01'.

Length 69 m.

MMSI: 431300097.

Date/timePositionNaut miles runAvg speedWind from/ knotsBaromVisibWave heightAir tempDewpointWater temp
2017-Nov-17 05:53N 34°37' E 135°01'3 6.9
2017-Nov-17 05:30N 34°36' E 135°04'5 9.0
2017-Nov-17 05:00N 34°36' E 135°10'5 9.8
2017-Nov-17 04:30N 34°37' E 135°15'5 9.9
2017-Nov-17 04:00N 34°39' E 135°21'5 9.4
2017-Nov-17 03:30N 34°40' E 135°27'1 0.4
2017-Nov-17 02:15N 34°40' E 135°27'0 0.0
2017-Nov-17 01:56N 34°40' E 135°27'0 0.0
2017-Nov-17 01:30N 34°40' E 135°27'0 0.0
2017-Nov-17 00:14N 34°40' E 135°27'1 2.6
2017-Nov-17 00:00N 34°40' E 135°27'610.9
2017-Nov-16 23:30N 34°37' E 135°21'510.9
2017-Nov-16 23:00N 34°33' E 135°17'611.2
2017-Nov-16 22:30N 34°29' E 135°12'611.4
2017-Nov-16 22:00N 34°24' E 135°08'611.8
2017-Nov-16 21:30N 34°19' E 135°04'510.0
2017-Nov-16 21:00N 34°14' E 135°05'3 5.1
2017-Nov-16 20:30N 34°13' E 135°08'0 0.0
2017-Nov-16 20:00N 34°13' E 135°08'0 0.0
2017-Nov-16 19:30N 34°13' E 135°08'0 0.0
2017-Nov-16 19:00N 34°13' E 135°08'0 0.0
2017-Nov-16 18:30N 34°13' E 135°08'0 0.0
2017-Nov-16 18:00N 34°13' E 135°08'0 0.0
2017-Nov-16 17:30N 34°13' E 135°08'0 0.7
2017-Nov-16 17:00N 34°13' E 135°08'5 9.5
2017-Nov-16 16:30N 34°12' E 135°02'5 9.4
2017-Nov-16 15:57N 34°12' E 134°56'  
2017-Nov-14 01:39N 34°37' E 135°02'1 7.9
2017-Nov-14 01:30N 34°37' E 135°03'4 8.9
2017-Nov-14 01:00N 34°37' E 135°08'510.3
2017-Nov-14 00:30N 34°37' E 135°14'510.2
2017-Nov-14 00:00N 34°38' E 135°20'5 9.5
2017-Nov-13 23:30N 34°40' E 135°26'1 2.3
2017-Nov-13 23:00N 34°40' E 135°27'0 0.0
2017-Nov-13 22:28N 34°40' E 135°27'0 0.0
2017-Nov-13 21:59N 34°40' E 135°27'  
2017-Nov-11 02:21N 34°36' E 134°55'5 9.8
2017-Nov-11 01:49N 34°37' E 135°01'3 9.3
2017-Nov-11 01:30N 34°36' E 135°04'5 9.8
2017-Nov-11 01:00N 34°37' E 135°10'510.2
2017-Nov-11 00:30N 34°38' E 135°16'5 9.8
2017-Nov-11 00:00N 34°38' E 135°22'4 8.6
2017-Nov-10 23:30N 34°40' E 135°27'0 0.1
2017-Nov-10 23:00N 34°40' E 135°27'0 0.0
2017-Nov-10 22:30N 34°40' E 135°27'0 0.0
2017-Nov-10 22:00N 34°40' E 135°27'0 0.0
2017-Nov-10 21:30N 34°40' E 135°27'0 0.1
2017-Nov-10 21:00N 34°40' E 135°27'0 0.0
2017-Nov-10 12:51N 34°40' E 135°27'3 7.6
2017-Nov-10 12:30N 34°39' E 135°25'510.9
2017-Nov-10 12:00N 34°36' E 135°19'611.3
2017-Nov-10 11:30N 34°35' E 135°12'612.0
2017-Nov-10 11:00N 34°35' E 135°05'612.4
2017-Nov-10 10:30N 34°37' E 134°58'  
Track history (hours):
 
Tides and Currents Weather Stations Pressure Air Temp Water Temp Dewpoint Dewpoint Depression Visibility Wind Speed Wind Dir Waves Ship Positions

Sumiyoshimaru No11

Last reported at 2017-Nov-17 05:53 UTC. Time now 2017-Nov-22 09:23 UTC.
Position N 34°37' E 135°01'.

Length 69 m.

MMSI: 431300097.

Date/timePositionNaut miles runAvg speedWind from/ knotsBaromVisibWave heightAir tempDewpointWater temp
2017-Nov-17 05:53N 34°37' E 135°01'3 6.9
2017-Nov-17 05:30N 34°36' E 135°04'5 9.0
2017-Nov-17 05:00N 34°36' E 135°10'5 9.8
2017-Nov-17 04:30N 34°37' E 135°15'5 9.9
2017-Nov-17 04:00N 34°39' E 135°21'5 9.4
2017-Nov-17 03:30N 34°40' E 135°27'1 0.4
2017-Nov-17 02:15N 34°40' E 135°27'0 0.0
2017-Nov-17 01:56N 34°40' E 135°27'0 0.0
2017-Nov-17 01:30N 34°40' E 135°27'0 0.0
2017-Nov-17 00:14N 34°40' E 135°27'1 2.6
2017-Nov-17 00:00N 34°40' E 135°27'610.9
2017-Nov-16 23:30N 34°37' E 135°21'510.9
2017-Nov-16 23:00N 34°33' E 135°17'611.2
2017-Nov-16 22:30N 34°29' E 135°12'611.4
2017-Nov-16 22:00N 34°24' E 135°08'611.8
2017-Nov-16 21:30N 34°19' E 135°04'510.0
2017-Nov-16 21:00N 34°14' E 135°05'3 5.1
2017-Nov-16 20:30N 34°13' E 135°08'0 0.0
2017-Nov-16 20:00N 34°13' E 135°08'0 0.0
2017-Nov-16 19:30N 34°13' E 135°08'0 0.0
2017-Nov-16 19:00N 34°13' E 135°08'0 0.0
2017-Nov-16 18:30N 34°13' E 135°08'0 0.0
2017-Nov-16 18:00N 34°13' E 135°08'0 0.0
2017-Nov-16 17:30N 34°13' E 135°08'0 0.7
2017-Nov-16 17:00N 34°13' E 135°08'5 9.5
2017-Nov-16 16:30N 34°12' E 135°02'5 9.4
2017-Nov-16 15:57N 34°12' E 134°56'  
2017-Nov-14 01:39N 34°37' E 135°02'1 7.9
2017-Nov-14 01:30N 34°37' E 135°03'4 8.9
2017-Nov-14 01:00N 34°37' E 135°08'510.3
2017-Nov-14 00:30N 34°37' E 135°14'510.2
2017-Nov-14 00:00N 34°38' E 135°20'5 9.5
2017-Nov-13 23:30N 34°40' E 135°26'1 2.3
2017-Nov-13 23:00N 34°40' E 135°27'0 0.0
2017-Nov-13 22:28N 34°40' E 135°27'0 0.0
2017-Nov-13 21:59N 34°40' E 135°27'  
2017-Nov-11 02:21N 34°36' E 134°55'5 9.8
2017-Nov-11 01:49N 34°37' E 135°01'3 9.3
2017-Nov-11 01:30N 34°36' E 135°04'5 9.8
2017-Nov-11 01:00N 34°37' E 135°10'510.2
2017-Nov-11 00:30N 34°38' E 135°16'5 9.8
2017-Nov-11 00:00N 34°38' E 135°22'4 8.6
2017-Nov-10 23:30N 34°40' E 135°27'0 0.1
2017-Nov-10 23:00N 34°40' E 135°27'0 0.0
2017-Nov-10 22:30N 34°40' E 135°27'0 0.0
2017-Nov-10 22:00N 34°40' E 135°27'0 0.0
2017-Nov-10 21:30N 34°40' E 135°27'0 0.1
2017-Nov-10 21:00N 34°40' E 135°27'0 0.0
2017-Nov-10 12:51N 34°40' E 135°27'3 7.6
2017-Nov-10 12:30N 34°39' E 135°25'510.9
2017-Nov-10 12:00N 34°36' E 135°19'611.3
2017-Nov-10 11:30N 34°35' E 135°12'612.0
2017-Nov-10 11:00N 34°35' E 135°05'612.4
2017-Nov-10 10:30N 34°37' E 134°58'  

Dump ship's entire track history